createdAt,value
2018-05-09T00:01:24.822Z,18.60
2018-05-09T00:03:53.921Z,18.50
2018-05-09T00:06:23.440Z,18.40
2018-05-09T00:08:52.701Z,18.40
2018-05-09T00:11:21.868Z,18.30
2018-05-09T00:13:50.961Z,18.30
2018-05-09T00:16:20.460Z,18.30
2018-05-09T00:18:49.440Z,18.30
2018-05-09T00:21:18.260Z,18.20
2018-05-09T00:23:47.187Z,18.20
2018-05-09T00:26:16.663Z,18.20
2018-05-09T00:28:44.982Z,18.30
2018-05-09T00:31:13.505Z,18.30
2018-05-09T00:33:42.620Z,18.40
2018-05-09T00:36:12.141Z,18.40
2018-05-09T00:38:41.363Z,18.40
2018-05-09T00:41:10.881Z,18.50
2018-05-09T00:43:39.361Z,18.50
2018-05-09T00:46:08.100Z,18.50
2018-05-09T00:48:37.360Z,18.50
2018-05-09T00:51:06.101Z,18.50
2018-05-09T00:53:36.401Z,18.30
2018-05-09T00:56:05.361Z,18.30
2018-05-09T00:58:34.441Z,18.20
2018-05-09T01:01:03.601Z,18.20
2018-05-09T01:03:33.121Z,18.10
2018-05-09T01:06:02.161Z,18.10
2018-05-09T01:08:31.261Z,18.10
2018-05-09T01:11:00.865Z,18.00
2018-05-09T01:13:30.721Z,18.00
2018-05-09T01:16:01.341Z,17.90
2018-05-09T01:18:29.943Z,17.90
2018-05-09T01:20:59.441Z,17.80
2018-05-09T01:23:28.661Z,17.80
2018-05-09T01:25:57.841Z,17.80
2018-05-09T01:28:26.201Z,17.80
2018-05-09T01:30:54.581Z,17.80
2018-05-09T01:33:23.601Z,17.70
2018-05-09T01:35:52.600Z,17.80
2018-05-09T01:38:21.522Z,17.80
2018-05-09T01:40:50.840Z,17.70
2018-05-09T01:43:20.082Z,17.60
2018-05-09T01:45:50.361Z,17.40
2018-05-09T01:48:20.241Z,17.40
2018-05-09T01:50:49.081Z,17.40
2018-05-09T01:53:17.921Z,17.50
2018-05-09T01:55:47.325Z,17.40
2018-05-09T01:58:15.921Z,17.40
2018-05-09T02:00:44.501Z,17.40
2018-05-09T02:03:13.321Z,17.40
2018-05-09T02:05:42.019Z,17.30
2018-05-09T02:08:10.741Z,17.30
2018-05-09T02:10:39.061Z,17.30
2018-05-09T02:13:07.541Z,17.30
2018-05-09T02:15:36.221Z,17.20
2018-05-09T02:18:04.701Z,17.10
2018-05-09T02:20:33.160Z,16.90
2018-05-09T02:23:01.961Z,17.00
2018-05-09T02:25:31.223Z,17.00
2018-05-09T02:27:59.601Z,17.00
2018-05-09T02:30:28.881Z,17.00
2018-05-09T02:32:58.162Z,16.90
2018-05-09T02:35:27.583Z,16.90
2018-05-09T02:37:56.401Z,16.90
2018-05-09T02:40:25.741Z,16.80
2018-05-09T02:42:54.602Z,16.80
2018-05-09T02:45:23.642Z,16.80
2018-05-09T02:47:54.143Z,16.60
2018-05-09T02:50:22.382Z,16.60
2018-05-09T02:52:51.882Z,16.60
2018-05-09T02:55:21.182Z,16.60
2018-05-09T02:57:50.602Z,16.60
2018-05-09T03:00:19.763Z,16.60
2018-05-09T03:02:49.166Z,16.60
2018-05-09T03:05:18.126Z,16.60
2018-05-09T03:07:46.862Z,16.50
2018-05-09T03:10:15.963Z,16.40
2018-05-09T03:12:44.861Z,16.40
2018-05-09T03:15:14.644Z,16.30
2018-05-09T03:17:43.581Z,16.40
2018-05-09T03:20:12.842Z,16.30
2018-05-09T03:22:41.841Z,16.30
2018-05-09T03:25:11.601Z,16.30
2018-05-09T03:27:40.842Z,16.20
2018-05-09T03:30:09.844Z,16.20
2018-05-09T03:32:38.600Z,16.10
2018-05-09T03:35:07.321Z,16.20
2018-05-09T03:37:36.620Z,16.10
2018-05-09T03:40:05.641Z,16.10
2018-05-09T03:42:34.841Z,16.10
2018-05-09T03:45:03.481Z,16.10
2018-05-09T03:47:32.542Z,16.20
2018-05-09T03:50:01.801Z,16.20
2018-05-09T03:52:30.321Z,16.30
2018-05-09T03:54:59.781Z,16.30
2018-05-09T03:57:29.281Z,16.20
2018-05-09T03:59:58.101Z,16.10
2018-05-09T04:02:45.662Z,16.10
2018-05-09T04:05:26.001Z,16.10
2018-05-09T04:08:06.481Z,16.10
2018-05-09T04:10:35.502Z,16.10
2018-05-09T04:13:05.237Z,16.00
2018-05-09T04:15:33.961Z,16.00
2018-05-09T04:18:02.481Z,16.00
2018-05-09T04:20:31.521Z,15.90
2018-05-09T04:23:00.502Z,15.90
2018-05-09T04:25:29.622Z,15.90
2018-05-09T04:27:59.381Z,15.80
2018-05-09T04:30:28.461Z,15.90
2018-05-09T04:32:58.161Z,15.90
2018-05-09T04:35:27.744Z,15.80
2018-05-09T04:37:56.442Z,15.80
2018-05-09T04:40:25.441Z,15.70
2018-05-09T04:42:54.142Z,15.70
2018-05-09T04:45:23.161Z,15.70
2018-05-09T04:47:51.641Z,15.70
2018-05-09T04:50:20.360Z,15.80
2018-05-09T04:52:49.480Z,15.70
2018-05-09T04:55:18.880Z,15.70
2018-05-09T04:57:47.700Z,15.70
2018-05-09T05:00:16.624Z,15.70
2018-05-09T05:02:45.602Z,15.60
2018-05-09T05:05:14.086Z,15.60
2018-05-09T05:07:43.079Z,15.70
2018-05-09T05:10:11.800Z,15.60
2018-05-09T05:12:40.560Z,15.60
2018-05-09T05:15:10.620Z,15.60
2018-05-09T05:17:39.080Z,15.70
2018-05-09T05:20:08.040Z,15.70
2018-05-09T05:22:37.701Z,15.70
2018-05-09T05:25:06.200Z,15.80
2018-05-09T05:27:35.961Z,15.80
2018-05-09T05:30:05.060Z,15.90
2018-05-09T05:32:34.501Z,16.20
2018-05-09T05:35:03.824Z,16.20
2018-05-09T05:37:33.822Z,16.40
2018-05-09T05:40:03.602Z,16.70
2018-05-09T05:42:32.601Z,16.70
2018-05-09T05:45:01.417Z,16.80
2018-05-09T05:47:30.401Z,17.00
2018-05-09T05:49:59.540Z,17.20
2018-05-09T05:52:28.540Z,17.30
2018-05-09T05:54:57.488Z,17.30
2018-05-09T05:57:26.500Z,17.30
2018-05-09T05:59:55.522Z,17.50
2018-05-09T06:02:24.481Z,17.70
2018-05-09T06:04:53.261Z,17.70
2018-05-09T06:07:23.004Z,17.70
2018-05-09T06:09:52.262Z,17.70
2018-05-09T06:12:20.962Z,17.90
2018-05-09T06:14:50.243Z,18.00
2018-05-09T06:17:19.265Z,18.10
2018-05-09T06:19:48.481Z,18.20
2018-05-09T06:22:17.082Z,18.30
2018-05-09T06:24:46.221Z,18.30
2018-05-09T06:27:14.964Z,18.30
2018-05-09T06:29:43.941Z,18.30
2018-05-09T06:32:13.041Z,18.30
2018-05-09T06:34:42.701Z,18.40
2018-05-09T06:37:11.704Z,18.40
2018-05-09T06:39:42.221Z,18.60
2018-05-09T06:42:10.721Z,18.60
2018-05-09T06:44:40.501Z,18.80
2018-05-09T06:47:09.066Z,18.80
2018-05-09T06:49:38.461Z,18.90
2018-05-09T06:52:07.701Z,19.00
2018-05-09T06:54:36.705Z,19.20
2018-05-09T06:57:06.201Z,19.50
2018-05-09T06:59:35.003Z,19.70
2018-05-09T07:02:04.201Z,19.70
2018-05-09T07:04:33.368Z,19.90
2018-05-09T07:07:02.168Z,19.80
2018-05-09T07:09:30.921Z,19.80
2018-05-09T07:11:59.688Z,19.80
2018-05-09T07:14:28.661Z,19.90
2018-05-09T07:16:58.140Z,19.90
2018-05-09T07:19:26.604Z,19.90
2018-05-09T07:21:55.620Z,20.00
2018-05-09T07:24:24.881Z,20.20
2018-05-09T07:26:53.861Z,20.30
2018-05-09T07:29:23.127Z,20.10
2018-05-09T07:31:51.361Z,20.10
2018-05-09T07:34:20.361Z,20.00
2018-05-09T07:36:49.320Z,20.00
2018-05-09T07:39:18.619Z,19.80
2018-05-09T07:41:47.321Z,19.80
2018-05-09T07:44:15.807Z,19.80
2018-05-09T07:46:44.784Z,19.80
2018-05-09T07:49:13.504Z,19.80
2018-05-09T07:51:43.531Z,19.90
2018-05-09T07:54:12.803Z,20.00
2018-05-09T07:56:42.547Z,20.30
2018-05-09T07:59:11.343Z,20.20
2018-05-09T08:01:40.156Z,20.30
2018-05-09T08:04:09.518Z,20.40
2018-05-09T08:06:38.179Z,20.30
2018-05-09T08:09:06.850Z,20.40
2018-05-09T08:11:35.712Z,20.40
2018-05-09T08:14:04.510Z,20.40
2018-05-09T08:16:33.491Z,20.30
2018-05-09T08:19:03.251Z,20.30
2018-05-09T08:21:31.991Z,20.20
2018-05-09T08:24:00.792Z,20.20
2018-05-09T08:26:30.264Z,20.20
2018-05-09T08:28:59.062Z,20.20
2018-05-09T08:31:27.684Z,20.30
2018-05-09T08:33:57.028Z,20.40
2018-05-09T08:36:26.451Z,20.30
2018-05-09T08:38:56.499Z,20.30
2018-05-09T08:41:25.210Z,20.30
2018-05-09T08:43:55.296Z,20.40
2018-05-09T08:46:23.953Z,20.20
2018-05-09T08:48:53.213Z,20.20
2018-05-09T08:51:22.473Z,20.20
2018-05-09T08:53:51.432Z,20.30
2018-05-09T08:56:21.234Z,20.30
2018-05-09T08:58:50.793Z,20.50
2018-05-09T09:01:20.237Z,20.50
2018-05-09T09:03:49.732Z,20.40
2018-05-09T09:06:18.746Z,20.40
2018-05-09T09:08:47.450Z,20.30
2018-05-09T09:11:17.038Z,20.40
2018-05-09T09:13:45.699Z,20.50
2018-05-09T09:16:14.888Z,20.40
2018-05-09T09:18:43.987Z,20.20
2018-05-09T09:21:13.440Z,20.10
2018-05-09T09:23:42.683Z,20.20
2018-05-09T09:26:11.422Z,20.20
2018-05-09T09:28:40.168Z,20.20
2018-05-09T09:31:09.410Z,20.40
2018-05-09T09:33:38.409Z,20.40
2018-05-09T09:36:07.439Z,20.40
2018-05-09T09:38:36.406Z,20.40
2018-05-09T09:41:05.391Z,20.70
2018-05-09T09:43:34.145Z,20.80
2018-05-09T09:46:03.904Z,20.80
2018-05-09T09:48:33.154Z,20.80
2018-05-09T09:51:02.908Z,20.80
2018-05-09T09:53:31.645Z,20.90
2018-05-09T09:56:01.216Z,20.90
2018-05-09T09:58:31.027Z,20.90
2018-05-09T10:00:59.926Z,20.90
2018-05-09T10:03:28.886Z,20.90
2018-05-09T10:05:57.886Z,21.10
2018-05-09T10:08:26.626Z,21.10
2018-05-09T10:10:55.687Z,21.10
2018-05-09T10:13:25.866Z,21.10
2018-05-09T10:15:54.970Z,21.00
2018-05-09T10:18:24.132Z,21.10
2018-05-09T10:20:54.139Z,21.20
2018-05-09T10:23:22.989Z,21.20
2018-05-09T10:25:52.145Z,21.20
2018-05-09T10:28:21.905Z,21.30
2018-05-09T10:30:51.144Z,21.20
2018-05-09T10:33:20.133Z,21.30
2018-05-09T10:35:49.044Z,21.40
2018-05-09T10:38:17.645Z,21.60
2018-05-09T10:40:46.787Z,21.80
2018-05-09T10:43:15.866Z,22.00
2018-05-09T10:45:45.625Z,22.60
2018-05-09T10:48:14.878Z,22.60
2018-05-09T10:50:44.713Z,23.10
2018-05-09T10:53:14.122Z,23.70
2018-05-09T10:55:43.131Z,23.10
2018-05-09T10:58:12.129Z,23.10
2018-05-09T11:00:41.083Z,23.30
2018-05-09T11:03:09.973Z,23.30
2018-05-09T11:05:39.132Z,23.40
2018-05-09T11:08:08.873Z,23.50
2018-05-09T11:10:38.756Z,24.10
2018-05-09T11:13:07.455Z,24.10
2018-05-09T11:15:36.593Z,24.20
2018-05-09T11:18:06.371Z,24.30
2018-05-09T11:20:35.092Z,24.20
2018-05-09T11:23:03.533Z,24.20
2018-05-09T11:25:32.311Z,24.30
2018-05-09T11:28:00.933Z,24.50
2018-05-09T11:30:29.793Z,24.70
2018-05-09T11:32:58.793Z,25.00
2018-05-09T11:35:27.532Z,25.00
2018-05-09T11:37:55.854Z,25.10
2018-05-09T11:40:24.846Z,25.10
2018-05-09T11:42:54.612Z,25.60
2018-05-09T11:45:23.754Z,25.60
2018-05-09T11:47:52.491Z,25.70
2018-05-09T11:50:20.877Z,25.30
2018-05-09T11:52:49.458Z,25.20
2018-05-09T11:55:18.457Z,25.00
2018-05-09T11:57:47.435Z,25.20
2018-05-09T12:00:16.290Z,25.40
2018-05-09T12:02:45.170Z,25.60
2018-05-09T12:05:14.690Z,25.60
2018-05-09T12:07:43.422Z,25.70
2018-05-09T12:10:12.406Z,26.00
2018-05-09T12:12:41.432Z,26.10
2018-05-09T12:15:10.281Z,26.10
2018-05-09T12:17:39.890Z,26.10
2018-05-09T12:20:08.891Z,25.90
2018-05-09T12:22:37.626Z,25.70
2018-05-09T12:25:06.340Z,25.50
2018-05-09T12:27:35.628Z,25.40
2018-05-09T12:30:04.440Z,25.30
2018-05-09T12:32:33.099Z,25.30
2018-05-09T12:35:01.820Z,25.10
2018-05-09T12:37:30.320Z,24.90
2018-05-09T12:39:59.660Z,24.80
2018-05-09T12:42:28.561Z,24.80
2018-05-09T12:44:57.565Z,24.80
2018-05-09T12:47:26.264Z,24.90
2018-05-09T12:49:55.267Z,24.90
2018-05-09T12:52:24.025Z,25.00
2018-05-09T12:54:54.044Z,25.10
2018-05-09T12:57:23.908Z,25.10
2018-05-09T12:59:52.785Z,25.10
2018-05-09T13:02:21.782Z,25.10
2018-05-09T13:04:50.521Z,25.10
2018-05-09T13:07:19.282Z,25.20
2018-05-09T13:09:48.503Z,25.30
2018-05-09T13:12:17.418Z,25.50
2018-05-09T13:14:46.349Z,25.70
2018-05-09T13:17:15.590Z,25.90
2018-05-09T13:19:44.257Z,26.00
2018-05-09T13:22:13.762Z,26.40
2018-05-09T13:24:42.786Z,26.50
2018-05-09T13:27:11.728Z,26.50
2018-05-09T13:29:40.705Z,26.30
2018-05-09T13:32:09.947Z,26.20
2018-05-09T13:34:39.172Z,26.30
2018-05-09T13:37:07.841Z,26.60
2018-05-09T13:39:36.906Z,26.70
2018-05-09T13:42:05.821Z,26.60
2018-05-09T13:44:35.679Z,26.60
2018-05-09T13:47:03.859Z,26.70
2018-05-09T13:49:33.440Z,26.70
2018-05-09T13:52:02.860Z,26.70
2018-05-09T13:54:32.427Z,26.60
2018-05-09T13:57:02.726Z,26.80
2018-05-09T13:59:32.205Z,26.90
2018-05-09T14:02:00.886Z,26.90
2018-05-09T14:04:29.987Z,26.90
2018-05-09T14:06:59.445Z,27.10
2018-05-09T14:09:27.926Z,27.30
2018-05-09T14:11:56.664Z,27.20
2018-05-09T14:14:25.505Z,27.30
2018-05-09T14:16:54.645Z,26.70
2018-05-09T14:19:23.545Z,27.00
2018-05-09T14:21:52.367Z,27.00
2018-05-09T14:24:21.613Z,27.10
2018-05-09T14:26:50.353Z,27.10
2018-05-09T14:29:18.523Z,27.00
2018-05-09T14:31:46.996Z,26.90
2018-05-09T14:34:16.057Z,27.00
2018-05-09T14:36:45.336Z,26.90
2018-05-09T14:39:15.457Z,26.70
2018-05-09T14:41:43.855Z,26.70
2018-05-09T14:44:12.535Z,26.60
2018-05-09T14:46:41.543Z,26.60
2018-05-09T14:49:11.036Z,26.40
2018-05-09T14:51:40.315Z,26.40
2018-05-09T14:54:08.939Z,26.30
2018-05-09T14:56:38.019Z,26.20
2018-05-09T14:59:07.207Z,26.10
2018-05-09T15:01:36.264Z,26.10
2018-05-09T15:04:05.021Z,26.10
2018-05-09T15:06:34.004Z,26.00
2018-05-09T15:09:02.733Z,25.80
2018-05-09T15:11:32.233Z,25.70
2018-05-09T15:14:02.361Z,25.80
2018-05-09T15:16:31.410Z,25.80
2018-05-09T15:19:00.696Z,25.80
2018-05-09T15:21:29.522Z,25.80
2018-05-09T15:23:58.441Z,25.90
2018-05-09T15:26:27.502Z,25.90
2018-05-09T15:28:57.251Z,25.70
2018-05-09T15:31:27.024Z,25.70
2018-05-09T15:33:55.543Z,25.80
2018-05-09T15:36:23.963Z,25.60
2018-05-09T15:38:53.263Z,25.60
2018-05-09T15:41:22.224Z,25.60
2018-05-09T15:43:51.464Z,25.60
2018-05-09T15:46:20.610Z,25.50
2018-05-09T15:48:50.224Z,25.50
2018-05-09T15:51:19.526Z,25.50
2018-05-09T15:53:48.463Z,25.50
2018-05-09T15:56:17.724Z,25.50
2018-05-09T15:58:46.463Z,25.60
2018-05-09T16:01:16.142Z,25.60
2018-05-09T16:03:45.183Z,25.60
2018-05-09T16:06:14.725Z,25.60
2018-05-09T16:08:43.444Z,25.60
2018-05-09T16:11:12.583Z,25.40
2018-05-09T16:13:41.957Z,25.40
2018-05-09T16:16:10.925Z,25.30
2018-05-09T16:18:39.924Z,25.10
2018-05-09T16:21:08.924Z,24.90
2018-05-09T16:23:38.164Z,24.80
2018-05-09T16:26:07.424Z,24.70
2018-05-09T16:28:36.927Z,24.60
2018-05-09T16:31:06.664Z,24.50
2018-05-09T16:33:35.185Z,24.50
2018-05-09T16:36:03.625Z,24.50
2018-05-09T16:38:32.665Z,24.40
2018-05-09T16:41:01.365Z,24.50
2018-05-09T16:43:30.125Z,24.40
2018-05-09T16:45:59.625Z,24.30
2018-05-09T16:48:29.364Z,24.40
2018-05-09T16:50:58.611Z,24.30
2018-05-09T16:53:27.525Z,24.40
2018-05-09T16:55:56.103Z,24.50
2018-05-09T16:58:26.627Z,24.40
2018-05-09T17:00:55.105Z,24.40
2018-05-09T17:03:24.109Z,24.30
2018-05-09T17:05:52.810Z,24.20
2018-05-09T17:08:22.084Z,24.20
2018-05-09T17:10:51.584Z,24.10
2018-05-09T17:13:20.343Z,24.10
2018-05-09T17:15:50.279Z,24.10
2018-05-09T17:18:19.079Z,24.10
2018-05-09T17:20:48.607Z,24.10
2018-05-09T17:23:17.839Z,24.10
2018-05-09T17:25:47.079Z,24.20
2018-05-09T17:28:16.083Z,24.10
2018-05-09T17:30:44.619Z,24.00
2018-05-09T17:33:13.579Z,24.00
2018-05-09T17:35:42.799Z,24.00
2018-05-09T17:38:11.558Z,24.00
2018-05-09T17:40:41.040Z,24.10
2018-05-09T17:43:10.039Z,24.10
2018-05-09T17:45:39.419Z,24.10
2018-05-09T17:48:08.799Z,24.00
2018-05-09T17:50:37.759Z,23.80
2018-05-09T17:53:07.830Z,23.70
2018-05-09T17:55:37.190Z,23.70
2018-05-09T17:58:05.469Z,23.70
2018-05-09T18:00:34.529Z,23.80
2018-05-09T18:03:03.590Z,23.80
2018-05-09T18:05:32.909Z,23.70
2018-05-09T18:08:02.270Z,23.70
2018-05-09T18:10:31.091Z,23.60
2018-05-09T18:13:00.789Z,23.50
2018-05-09T18:15:30.298Z,23.50
2018-05-09T18:17:59.010Z,23.40
2018-05-09T18:20:28.255Z,23.30
2018-05-09T18:22:57.491Z,23.20
2018-05-09T18:25:26.429Z,23.10
2018-05-09T18:27:55.949Z,23.10
2018-05-09T18:30:24.529Z,23.00
2018-05-09T18:32:54.049Z,23.00
2018-05-09T18:35:22.729Z,23.00
2018-05-09T18:37:51.652Z,23.00
2018-05-09T18:40:21.231Z,23.00
2018-05-09T18:42:49.735Z,23.00
2018-05-09T18:45:18.970Z,23.00
2018-05-09T18:47:47.710Z,23.00
2018-05-09T18:50:16.430Z,22.90
2018-05-09T18:52:45.689Z,22.90
2018-05-09T18:55:13.969Z,22.80
2018-05-09T18:57:43.149Z,22.80
2018-05-09T19:00:12.409Z,22.80
2018-05-09T19:02:41.150Z,22.70
2018-05-09T19:05:09.629Z,22.60
2018-05-09T19:07:38.630Z,22.60
2018-05-09T19:10:07.277Z,22.70
2018-05-09T19:12:36.610Z,22.70
2018-05-09T19:15:05.610Z,22.50
2018-05-09T19:17:34.349Z,22.30
2018-05-09T19:20:03.329Z,22.00
2018-05-09T19:22:32.069Z,21.80
2018-05-09T19:25:01.691Z,21.70
2018-05-09T19:27:31.129Z,21.50
2018-05-09T19:30:00.085Z,21.40
2018-05-09T19:32:28.649Z,21.10
2018-05-09T19:34:57.552Z,20.70
2018-05-09T19:37:27.350Z,20.40
2018-05-09T19:39:56.308Z,20.20
2018-05-09T19:42:25.170Z,20.20
2018-05-09T19:44:53.769Z,20.20
2018-05-09T19:47:22.768Z,20.20
2018-05-09T19:49:51.589Z,20.00
2018-05-09T19:52:20.068Z,19.10
2018-05-09T19:54:49.228Z,20.10
2018-05-09T19:57:17.790Z,20.20
2018-05-09T19:59:46.968Z,20.20
2018-05-09T20:02:15.969Z,20.20
2018-05-09T20:04:44.708Z,20.20
2018-05-09T20:07:13.700Z,20.00
2018-05-09T20:09:43.188Z,19.80
2018-05-09T20:12:12.036Z,19.80
2018-05-09T20:14:41.309Z,19.80
2018-05-09T20:17:10.588Z,19.70
2018-05-09T20:19:39.950Z,19.60
2018-05-09T20:22:09.950Z,19.50
2018-05-09T20:24:38.669Z,19.40
2018-05-09T20:27:07.449Z,19.40
2018-05-09T20:29:36.869Z,19.30
2018-05-09T20:32:16.989Z,19.30
2018-05-09T20:34:46.168Z,19.30
2018-05-09T20:37:15.428Z,19.30
2018-05-09T20:39:45.189Z,19.20
2018-05-09T20:42:13.549Z,19.20
2018-05-09T20:44:42.409Z,19.20
2018-05-09T20:47:12.109Z,19.10
2018-05-09T20:49:41.689Z,19.10
2018-05-09T20:52:10.769Z,19.10
2018-05-09T20:54:39.946Z,19.10
2018-05-09T20:57:09.749Z,19.00
2018-05-09T20:59:38.670Z,19.00
2018-05-09T21:02:07.409Z,18.90
2018-05-09T21:04:36.410Z,18.80
2018-05-09T21:07:05.428Z,18.70
2018-05-09T21:09:34.373Z,18.60
2018-05-09T21:12:09.865Z,18.60
2018-05-09T21:14:38.918Z,18.60
2018-05-09T21:17:07.250Z,18.50
2018-05-09T21:19:36.248Z,18.50
2018-05-09T21:22:04.550Z,18.40
2018-05-09T21:24:33.209Z,18.30
2018-05-09T21:27:02.011Z,18.30
2018-05-09T21:29:31.708Z,18.40
2018-05-09T21:32:00.410Z,18.40
2018-05-09T21:34:30.168Z,18.50
2018-05-09T21:36:58.623Z,18.50
2018-05-09T21:39:27.689Z,18.50
2018-05-09T21:41:57.135Z,18.50
2018-05-09T21:44:26.208Z,18.60
2018-05-09T21:46:55.969Z,18.60
2018-05-09T21:49:25.728Z,18.60
2018-05-09T21:51:54.808Z,18.60
2018-05-09T21:54:24.491Z,18.60
2018-05-09T21:56:53.468Z,18.70
2018-05-09T21:59:23.488Z,18.70
2018-05-09T22:01:52.730Z,18.70
2018-05-09T22:04:22.230Z,18.60
2018-05-09T22:06:51.051Z,18.60
2018-05-09T22:09:20.250Z,18.70
2018-05-09T22:11:49.208Z,18.80
2018-05-09T22:14:17.688Z,18.80
2018-05-09T22:16:46.930Z,18.80
2018-05-09T22:19:16.448Z,18.80
2018-05-09T22:21:44.988Z,18.80
2018-05-09T22:24:14.171Z,18.80
2018-05-09T22:26:43.667Z,18.70
2018-05-09T22:29:12.990Z,18.80
2018-05-09T22:31:42.167Z,18.90
2018-05-09T22:34:10.931Z,18.90
2018-05-09T22:36:39.848Z,18.90
2018-05-09T22:39:09.148Z,18.80
2018-05-09T22:41:38.409Z,18.70
2018-05-09T22:44:07.649Z,18.40
2018-05-09T22:46:37.409Z,18.30
2018-05-09T22:49:06.668Z,18.20
2018-05-09T22:51:35.902Z,18.30
2018-05-09T22:54:05.411Z,18.30
2018-05-09T22:56:33.888Z,18.20
2018-05-09T22:59:02.648Z,18.20
2018-05-09T23:01:31.647Z,18.10
2018-05-09T23:04:01.127Z,18.10
2018-05-09T23:06:30.107Z,18.00
2018-05-09T23:08:59.408Z,17.90
2018-05-09T23:11:28.327Z,17.80
2018-05-09T23:13:57.689Z,17.80
2018-05-09T23:16:26.449Z,17.80
2018-05-09T23:18:55.327Z,17.80
2018-05-09T23:21:24.429Z,17.80
2018-05-09T23:23:53.602Z,17.80
2018-05-09T23:26:23.608Z,17.80
2018-05-09T23:28:52.848Z,17.80
2018-05-09T23:31:21.849Z,17.80
2018-05-09T23:33:50.587Z,17.70
2018-05-09T23:36:18.807Z,17.80
2018-05-09T23:38:47.595Z,17.70
2018-05-09T23:41:17.347Z,17.70
2018-05-09T23:43:46.847Z,17.60
2018-05-09T23:46:16.089Z,17.60
2018-05-09T23:48:45.067Z,17.60
2018-05-09T23:51:14.307Z,17.60
2018-05-09T23:53:44.067Z,17.70
2018-05-09T23:56:12.807Z,17.80
2018-05-09T23:58:42.307Z,17.80
